Time;durP1;ratioP1;P1;durP2;ratioP2;P2;SDS_P1;SDS_P2;PMS_P1;PMS_P2;Temp;Humidity;BMP_temperature;BMP_pressure;BME280_temperature;BME280_humidity;BME280_pressure;Samples;Min_cycle;Max_cycle;Signal;HPM_P1;HPM_P2
2021/12/12 00:00:31;;;;;;;14.48;10.50;;;;;;;3.78;100.00;102131.34;5259898;28;20057;-83
2021/12/12 00:03:14;;;;;;;19.85;10.80;;;;;;;3.77;100.00;102127.81;5279189;28;20024;-82
2021/12/12 00:05:50;;;;;;;18.80;10.75;;;;;;;3.62;100.00;102094.91;5279148;28;20050;-82
2021/12/12 00:08:23;;;;;;;11.27;10.18;;;;;;;3.67;100.00;102084.53;5279763;28;20058;-83
2021/12/12 00:11:05;;;;;;;17.45;9.60;;;;;;;3.70;100.00;102089.50;5262349;28;20101;-81
2021/12/12 00:13:45;;;;;;;16.17;9.85;;;;;;;3.82;100.00;102104.06;5276485;28;20023;-82
2021/12/12 00:16:16;;;;;;;18.50;10.27;;;;;;;3.50;100.00;102046.44;5277195;28;20486;-82
2021/12/12 00:18:46;;;;;;;14.38;9.57;;;;;;;3.80;100.00;102095.41;5276885;28;20035;-82
2021/12/12 00:21:21;;;;;;;12.10;10.85;;;;;;;3.73;100.00;102073.94;5276666;28;20024;-82
2021/12/12 00:23:52;;;;;;;17.63;11.60;;;;;;;3.83;100.00;102094.22;5259203;28;20024;-82
2021/12/12 00:26:23;;;;;;;15.82;10.30;;;;;;;3.89;100.00;102109.53;5280813;28;20066;-82
2021/12/12 00:28:53;;;;;;;22.15;11.13;;;;;;;3.55;100.00;102046.72;5281018;28;20427;-82
2021/12/12 00:31:25;;;;;;;15.55;9.60;;;;;;;3.64;100.00;102050.16;5280780;28;20112;-83
2021/12/12 00:33:57;;;;;;;15.85;9.45;;;;;;;3.93;100.00;102100.97;5280708;28;20024;-83
2021/12/12 00:36:29;;;;;;;17.40;10.65;;;;;;;3.78;100.00;102072.56;5282086;28;20107;-83
2021/12/12 00:39:07;;;;;;;15.75;11.52;;;;;;;3.96;100.00;102081.06;5281739;28;20020;-82
2021/12/12 00:41:48;;;;;;;18.85;9.90;;;;;;;3.61;100.00;102040.66;5281952;28;20119;-83
2021/12/12 00:44:19;;;;;;;11.18;9.32;;;;;;;3.99;100.00;102092.25;5280876;28;20473;-82
2021/12/12 00:46:50;;;;;;;9.48;8.55;;;;;;;3.98;100.00;102085.22;5282318;28;20035;-82
2021/12/12 00:49:21;;;;;;;13.45;10.02;;;;;;;3.99;100.00;102092.25;5282993;28;20020;-85
2021/12/12 00:51:53;;;;;;;18.48;10.68;;;;;;;4.00;100.00;102085.06;5282067;28;20026;-82
2021/12/12 00:54:30;;;;;;;11.23;9.50;;;;;;;3.99;100.00;102086.88;5283498;28;20023;-84
2021/12/12 00:57:05;;;;;;;20.08;10.27;;;;;;;3.81;100.00;102061.50;5282046;28;20023;-83
2021/12/12 00:59:37;;;;;;;20.20;11.23;;;;;;;3.86;100.00;102057.28;5281629;28;20051;-82
2021/12/12 01:02:12;;;;;;;14.00;10.50;;;;;;;4.03;100.00;102082.84;5280626;28;20055;-83
2021/12/12 01:04:46;;;;;;;20.33;10.13;;;;;;;4.03;100.00;102079.34;5279702;28;20031;-83
2021/12/12 01:07:22;;;;;;;19.77;10.80;;;;;;;4.04;100.00;102076.47;5261915;28;20019;-82
2021/12/12 01:10:06;;;;;;;21.92;10.27;;;;;;;3.97;100.00;102059.53;5279795;28;20043;-83
2021/12/12 01:12:38;;;;;;;23.38;11.43;;;;;;;4.06;100.00;102074.44;5279756;28;20028;-83
2021/12/12 01:15:21;;;;;;;11.43;8.73;;;;;;;3.82;100.00;102029.25;5278997;28;20023;-82
2021/12/12 01:17:56;;;;;;;14.68;11.32;;;;;;;4.07;100.00;102072.59;5260783;28;20032;-83
2021/12/12 01:20:39;;;;;;;11.65;10.45;;;;;;;4.06;100.00;102065.59;5261054;28;20027;-83
2021/12/12 01:23:16;;;;;;;13.20;10.52;;;;;;;4.06;100.00;102077.09;5278830;28;20103;-82
2021/12/12 01:25:48;;;;;;;15.40;10.07;;;;;;;3.98;100.00;102058.50;5278415;28;20062;-83
2021/12/12 01:28:23;;;;;;;19.25;11.48;;;;;;;4.06;100.00;102079.78;5278582;28;20055;-83
2021/12/12 01:30:57;;;;;;;12.38;10.18;;;;;;;4.04;100.00;102072.97;5278654;28;20390;-83
2021/12/12 01:33:35;;;;;;;18.98;12.05;;;;;;;3.89;100.00;102046.22;5259886;28;20089;-83
2021/12/12 01:36:30;;;;;;;19.70;9.98;;;;;;;4.04;100.00;102062.28;5277664;28;20020;-83
2021/12/12 01:39:00;;;;;;;9.27;8.40;;;;;;;4.04;100.00;102059.63;5260351;28;20020;-83
2021/12/12 01:41:50;;;;;;;21.38;11.60;;;;;;;4.11;100.00;102073.88;5278059;28;20496;-83
2021/12/12 01:44:28;;;;;;;15.18;9.73;;;;;;;4.12;100.00;102072.03;5260560;28;20051;-83
2021/12/12 01:46:58;;;;;;;21.40;10.20;;;;;;;4.14;100.00;102075.38;5278562;28;20047;-83
2021/12/12 01:49:32;;;;;;;12.95;9.20;;;;;;;3.86;100.00;102024.38;5278706;28;20039;-82
2021/12/12 01:52:06;;;;;;;15.10;10.80;;;;;;;3.92;100.00;102040.53;5278205;28;20046;-83
2021/12/12 01:54:45;;;;;;;17.80;11.10;;;;;;;4.15;100.00;102060.97;5278204;28;20020;-83
2021/12/12 01:57:20;;;;;;;10.95;9.93;;;;;;;4.05;100.00;102046.03;5260609;28;20028;-80
2021/12/12 01:59:50;;;;;;;10.43;8.55;;;;;;;4.15;100.00;102050.28;5278354;28;20099;-83
2021/12/12 02:02:26;;;;;;;17.83;10.55;;;;;;;4.08;100.00;102039.50;5279857;28;20051;-83
2021/12/12 02:05:04;;;;;;;11.85;10.60;;;;;;;4.12;100.00;102053.34;5260720;28;20047;-83
2021/12/12 02:07:38;;;;;;;10.23;9.13;;;;;;;4.20;100.00;102055.91;5279607;28;20027;-83
2021/12/12 02:10:14;;;;;;;10.52;9.43;;;;;;;4.08;100.00;102043.00;5280088;28;20084;-83
2021/12/12 02:12:46;;;;;;;11.68;10.05;;;;;;;4.18;100.00;102049.94;5279761;28;20020;-83
2021/12/12 02:15:17;;;;;;;11.07;8.25;;;;;;;4.18;100.00;102052.59;5278751;28;20031;-82
2021/12/12 02:17:49;;;;;;;10.15;9.27;;;;;;;4.18;100.00;102061.44;5261244;28;20055;-83
2021/12/12 02:20:37;;;;;;;18.63;9.38;;;;;;;4.27;100.00;102070.22;5279336;28;20070;-83
2021/12/12 02:23:42;;;;;;;13.70;9.85;;;;;;;4.12;100.00;102046.13;5278788;28;20030;-82
2021/12/12 02:37:31;;;;;;;9.90;8.48;;;;;;;4.28;100.00;102045.97;5278344;28;20062;-82
2021/12/12 02:40:09;;;;;;;14.48;8.77;;;;;;;4.31;100.00;102034.91;5278434;28;20020;-82
2021/12/12 02:42:40;;;;;;;20.00;9.73;;;;;;;4.25;100.00;102024.13;5260096;28;20020;-83
2021/12/12 02:45:12;;;;;;;18.77;9.23;;;;;;;4.17;100.00;102003.66;5277920;28;20028;-83
2021/12/12 02:47:47;;;;;;;13.50;12.10;;;;;;;4.40;100.00;102033.78;5277499;28;20016;-83
2021/12/12 02:50:22;;;;;;;22.50;8.70;;;;;;;4.41;100.00;102037.28;5279099;28;20538;-84
2021/12/12 02:52:56;;;;;;;22.00;9.75;;;;;;;4.37;100.00;102027.97;5279739;28;20020;-82
2021/12/12 02:55:31;;;;;;;12.70;9.60;;;;;;;4.26;100.00;102007.06;5279197;28;20024;-83
2021/12/12 02:58:06;;;;;;;12.20;8.57;;;;;;;4.44;100.00;102047.59;5261262;28;20020;-83
2021/12/12 03:00:44;;;;;;;16.50;8.63;;;;;;;4.38;100.00;102035.78;5280087;28;20046;-84
2021/12/12 03:03:16;;;;;;;18.02;9.70;;;;;;;4.42;100.00;102033.59;5279950;28;20035;-83
2021/12/12 03:05:47;;;;;;;7.38;6.78;;;;;;;4.49;100.00;102042.53;5279206;28;20019;-83
2021/12/12 03:08:18;;;;;;;8.02;7.30;;;;;;;4.32;100.00;102015.19;5279925;28;20032;-83
2021/12/12 03:10:52;;;;;;;18.80;8.38;;;;;;;4.51;100.00;102045.84;5280240;28;20020;-83
2021/12/12 03:13:24;;;;;;;21.60;8.30;;;;;;;4.50;100.00;102044.19;5279547;28;20024;-84
2021/12/12 03:15:55;;;;;;;21.35;8.38;;;;;;;4.55;100.00;102052.47;5280419;28;20034;-83
2021/12/12 03:18:30;;;;;;;12.07;8.07;;;;;;;4.56;100.00;102051.47;5279712;28;20020;-84
2021/12/12 03:21:14;;;;;;;9.88;7.50;;;;;;;4.27;100.00;102011.41;5279223;28;20478;-83
2021/12/12 03:23:51;;;;;;;13.77;7.05;;;;;;;4.59;100.00;102053.78;5277688;28;20023;-82
2021/12/12 03:26:22;;;;;;;10.15;7.40;;;;;;;4.61;100.00;102051.75;5278153;28;20028;-83
2021/12/12 03:28:55;;;;;;;11.02;7.25;;;;;;;4.60;100.00;102050.09;5259998;28;20540;-82
2021/12/12 03:31:35;;;;;;;8.50;7.18;;;;;;;4.35;100.00;102003.25;5278367;28;20044;-83
2021/12/12 03:34:09;;;;;;;24.73;10.02;;;;;;;4.57;100.00;102042.44;5277769;28;20087;-84
2021/12/12 03:36:41;;;;;;;19.95;8.32;;;;;;;4.62;100.00;102064.06;5278415;28;20436;-84
2021/12/12 03:39:20;;;;;;;9.52;8.38;;;;;;;4.48;100.00;102024.81;5278813;28;20027;-84
2021/12/12 03:41:53;;;;;;;21.05;9.13;;;;;;;4.44;100.00;102007.47;5261223;28;20016;-84
2021/12/12 03:44:28;;;;;;;14.13;8.73;;;;;;;4.66;100.00;102045.81;5277936;28;20043;-83
2021/12/12 03:47:05;;;;;;;10.38;8.00;;;;;;;4.66;100.00;102051.97;5278570;28;20027;-83
2021/12/12 03:49:40;;;;;;;8.90;7.28;;;;;;;4.48;100.00;102022.13;5279208;28;20496;-83
2021/12/12 03:52:14;;;;;;;16.27;7.47;;;;;;;4.54;100.00;102029.44;5278288;28;20028;-84
2021/12/12 03:54:46;;;;;;;18.90;8.65;;;;;;;4.61;100.00;102038.38;5276816;28;20394;-84
2021/12/12 03:57:18;;;;;;;15.43;7.85;;;;;;;4.24;100.00;101974.34;5277877;28;20024;-83
2021/12/12 03:59:49;;;;;;;10.55;8.05;;;;;;;4.69;100.00;102037.41;5280114;28;20020;-84
2021/12/12 04:02:20;;;;;;;11.75;8.00;;;;;;;4.70;100.00;102036.38;5264444;28;20054;-84
2021/12/12 04:04:50;;;;;;;9.07;8.13;;;;;;;4.70;100.00;102023.00;5281462;28;20024;-84
2021/12/12 04:07:25;;;;;;;8.57;7.78;;;;;;;4.71;100.00;102025.50;5281170;28;20016;-83
2021/12/12 04:09:57;;;;;;;11.70;7.78;;;;;;;4.71;100.00;102032.69;5281626;28;20031;-84
2021/12/12 04:12:27;;;;;;;12.52;8.40;;;;;;;4.73;100.00;102022.63;5281187;28;20027;-84
2021/12/12 04:14:58;;;;;;;10.23;8.80;;;;;;;4.58;100.00;101997.78;5280438;28;20077;-83
2021/12/12 04:17:30;;;;;;;11.68;8.48;;;;;;;4.75;100.00;102020.59;5281534;28;20032;-84
2021/12/12 04:20:09;;;;;;;10.23;9.30;;;;;;;4.75;100.00;102021.44;5282099;28;20051;-84
2021/12/12 04:22:40;;;;;;;12.98;9.20;;;;;;;4.78;100.00;102030.94;5282539;28;20118;-82
2021/12/12 04:25:10;;;;;;;10.15;8.27;;;;;;;4.79;100.00;102027.22;5282383;28;20032;-83
2021/12/12 04:27:42;;;;;;;13.77;8.85;;;;;;;4.81;100.00;102032.41;5283129;28;20128;-84
2021/12/12 04:30:14;;;;;;;10.45;7.93;;;;;;;4.82;100.00;102026.84;5283872;28;20026;-83
2021/12/12 04:32:46;;;;;;;9.23;7.88;;;;;;;4.34;100.00;101934.72;5283412;28;20020;-83
2021/12/12 04:35:21;;;;;;;8.15;7.55;;;;;;;4.86;100.00;102028.16;5284454;28;20024;-83
2021/12/12 04:37:53;;;;;;;8.93;8.23;;;;;;;4.88;100.00;102033.31;5266708;28;20024;-84
2021/12/12 04:40:26;;;;;;;10.38;8.90;;;;;;;4.88;100.00;102036.81;5284389;28;20024;-82
2021/12/12 04:42:57;;;;;;;9.27;8.38;;;;;;;4.69;100.00;102011.47;5266740;28;20035;-82
2021/12/12 04:46:20;;;;;;;8.85;7.03;;;;;;;4.78;100.00;102016.72;5284191;28;20397;-84
2021/12/12 04:51:52;;;;;;;8.90;7.80;;;;;;;4.94;100.00;102048.59;5283146;28;20044;-84
2021/12/12 04:54:36;;;;;;;8.38;7.68;;;;;;;4.72;100.00;102003.06;5283745;28;20016;-83
2021/12/12 04:57:38;;;;;;;8.52;7.93;;;;;;;4.96;100.00;102043.88;5282797;28;20038;-84
2021/12/12 05:00:21;;;;;;;12.00;8.32;;;;;;;4.96;100.00;102044.69;5283158;28;20030;-83
2021/12/12 05:02:58;;;;;;;9.05;8.35;;;;;;;5.01;100.00;102046.81;5282952;22;20105;-58
2021/12/12 05:05:33;;;;;;;10.07;9.13;;;;;;;5.01;100.00;102046.81;5251652;28;20047;-62
2021/12/12 05:08:46;;;;;;;11.80;8.18;;;;;;;5.02;100.00;102035.91;5271000;28;20020;-62
2021/12/12 05:11:35;;;;;;;8.07;7.47;;;;;;;4.89;100.00;102017.06;5188154;28;20358;-61
2021/12/12 05:14:21;;;;;;;9.10;8.50;;;;;;;4.92;100.00;102013.16;5206134;28;20072;-62
2021/12/12 05:17:17;;;;;;;10.02;8.98;;;;;;;5.06;100.00;102039.03;5240205;28;20032;-62
2021/12/12 05:20:00;;;;;;;8.90;8.07;;;;;;;5.08;100.00;102045.88;5253883;28;20036;-62
2021/12/12 05:22:38;;;;;;;10.82;9.77;;;;;;;5.12;100.00;102048.16;5253454;28;20050;-62
2021/12/12 05:25:17;;;;;;;7.20;6.72;;;;;;;5.13;100.00;102047.97;5253261;28;20391;-62
2021/12/12 05:27:51;;;;;;;11.40;9.10;;;;;;;5.13;100.00;102045.31;5253322;28;20483;-62
2021/12/12 05:30:27;;;;;;;7.78;7.07;;;;;;;5.14;100.00;102041.59;5253407;28;20653;-62
2021/12/12 05:33:00;;;;;;;11.88;9.73;;;;;;;5.15;100.00;102051.28;5252527;28;20026;-60
2021/12/12 05:35:35;;;;;;;8.57;7.85;;;;;;;5.18;100.00;102045.56;5252504;28;20028;-62
2021/12/12 05:38:07;;;;;;;9.80;8.48;;;;;;;5.21;100.00;102053.19;5270769;28;20506;-61
2021/12/12 05:40:42;;;;;;;11.07;10.02;;;;;;;5.23;100.00;102061.03;5252574;28;20435;-62
2021/12/12 05:43:15;;;;;;;7.55;7.05;;;;;;;5.26;100.00;102068.69;5252001;28;20042;-60
2021/12/12 05:45:47;;;;;;;7.88;7.28;;;;;;;5.28;100.00;102056.75;5251890;28;20373;-62
2021/12/12 05:48:19;;;;;;;7.97;7.47;;;;;;;5.12;100.00;102026.75;5251795;28;20027;-62
2021/12/12 05:50:51;;;;;;;8.73;8.13;;;;;;;5.25;100.00;102051.78;5251672;28;20028;-62
2021/12/12 05:53:22;;;;;;;9.88;8.85;;;;;;;5.34;100.00;102071.25;5269619;28;20059;-61
2021/12/12 05:55:53;;;;;;;9.02;8.43;;;;;;;5.35;100.00;102073.72;5251617;28;20466;-62
2021/12/12 05:58:24;;;;;;;10.18;9.15;;;;;;;5.38;100.00;102076.03;5251506;28;20026;-61
2021/12/12 06:01:00;;;;;;;8.10;7.50;;;;;;;5.43;100.00;102072.78;5251237;28;20411;-63
2021/12/12 06:03:37;;;;;;;9.25;8.60;;;;;;;5.48;100.00;102082.94;5250548;28;20038;-63
2021/12/12 06:06:14;;;;;;;9.60;8.95;;;;;;;5.49;100.00;102079.19;5250942;28;20479;-62
2021/12/12 06:08:46;;;;;;;8.75;7.88;;;;;;;5.51;100.00;102085.19;5250976;28;20020;-63
2021/12/12 06:11:21;;;;;;;10.65;9.85;;;;;;;5.48;100.00;102074.88;5250882;28;20058;-63
2021/12/12 06:13:51;;;;;;;10.50;9.80;;;;;;;5.56;100.00;102088.13;5268854;28;20056;-63
2021/12/12 06:16:23;;;;;;;10.35;9.32;;;;;;;5.55;100.00;102075.75;5250765;28;20062;-63
2021/12/12 06:19:01;;;;;;;9.75;9.13;;;;;;;5.52;100.00;102076.13;5268673;28;20107;-62
2021/12/12 06:21:31;;;;;;;8.05;7.47;;;;;;;5.59;100.00;102091.25;5250519;28;20059;-63
2021/12/12 06:24:04;;;;;;;8.88;8.38;;;;;;;5.50;100.00;102084.34;5250318;28;20478;-63
2021/12/12 06:26:36;;;;;;;8.45;7.85;;;;;;;5.62;100.00;102101.59;5250451;28;20028;-62
2021/12/12 06:29:08;;;;;;;9.20;8.60;;;;;;;5.56;100.00;102082.75;5250488;28;20077;-62
2021/12/12 06:31:42;;;;;;;9.27;8.48;;;;;;;5.63;100.00;102094.38;5250488;28;20024;-61
2021/12/12 06:34:13;;;;;;;10.10;9.43;;;;;;;5.68;100.00;102102.69;5249797;28;20112;-63
2021/12/12 06:36:44;;;;;;;10.35;9.75;;;;;;;5.59;100.00;102090.41;5250298;28;20058;-62
2021/12/12 06:39:15;;;;;;;8.57;7.93;;;;;;;5.70;100.00;102108.66;5249932;28;20027;-63
2021/12/12 06:41:47;;;;;;;9.38;8.68;;;;;;;5.64;100.00;102098.72;5268157;28;20032;-63
2021/12/12 06:44:18;;;;;;;9.98;9.18;;;;;;;5.71;100.00;102103.13;5249811;28;20092;-63
2021/12/12 06:46:49;;;;;;;8.05;7.55;;;;;;;5.74;100.00;102108.09;5268128;28;20028;-63
2021/12/12 06:49:23;;;;;;;8.82;8.18;;;;;;;5.74;100.00;102110.78;5249966;28;20070;-63
2021/12/12 06:51:58;;;;;;;9.95;9.20;;;;;;;5.75;100.00;102107.06;5249706;28;20031;-63
2021/12/12 06:54:30;;;;;;;10.48;9.45;;;;;;;5.77;100.00;102117.59;5249466;28;20031;-62
2021/12/12 06:57:08;;;;;;;11.80;8.20;;;;;;;5.77;100.00;102109.56;5249754;28;20161;-63
2021/12/12 06:59:41;;;;;;;10.38;9.57;;;;;;;5.81;100.00;102110.81;5249757;28;20036;-63
2021/12/12 07:02:13;;;;;;;9.10;8.30;;;;;;;5.83;100.00;102116.81;5249761;28;20499;-61
2021/12/12 07:04:45;;;;;;;10.77;9.90;;;;;;;5.83;100.00;102122.16;5249234;28;20061;-63
2021/12/12 07:07:16;;;;;;;8.88;8.27;;;;;;;5.84;100.00;102123.81;5249850;28;20479;-63
2021/12/12 07:09:48;;;;;;;9.18;8.48;;;;;;;5.86;100.00;102116.41;5249378;28;20148;-61
2021/12/12 07:12:22;;;;;;;9.38;8.57;;;;;;;5.83;100.00;102106.09;5249472;28;20024;-62
2021/12/12 07:14:54;;;;;;;11.68;9.52;;;;;;;5.88;100.00;102124.28;5248737;28;20124;-63
2021/12/12 07:17:25;;;;;;;9.43;8.82;;;;;;;5.86;100.00;102119.09;5253654;28;20020;-63
2021/12/12 07:19:56;;;;;;;9.48;8.68;;;;;;;5.87;100.00;102110.03;5249176;28;20067;-63
2021/12/12 07:22:27;;;;;;;11.77;9.95;;;;;;;5.87;100.00;102120.75;5267071;28;20105;-63
2021/12/12 07:25:00;;;;;;;10.90;9.85;;;;;;;5.96;100.00;102121.50;5249121;28;20028;-62
2021/12/12 07:27:31;;;;;;;11.45;10.52;;;;;;;5.97;100.00;102131.19;5249073;28;20024;-63
2021/12/12 07:30:04;;;;;;;11.23;10.10;;;;;;;5.99;100.00;102123.78;5249294;28;20032;-63
2021/12/12 07:32:37;;;;;;;11.00;9.98;;;;;;;5.97;100.00;102126.66;5267204;28;20031;-62
2021/12/12 07:35:12;;;;;;;11.27;10.35;;;;;;;6.01;100.00;102130.63;5248381;28;20408;-63
2021/12/12 07:37:45;;;;;;;14.75;9.52;;;;;;;6.03;100.00;102122.38;5249258;28;20110;-63
2021/12/12 07:40:16;;;;;;;11.20;10.40;;;;;;;6.04;100.00;102127.53;5249214;28;20496;-63
2021/12/12 07:42:48;;;;;;;11.25;10.45;;;;;;;6.06;100.00;102132.72;5248968;28;20081;-61
2021/12/12 07:45:20;;;;;;;16.73;11.52;;;;;;;6.09;100.00;102135.81;5248985;28;20553;-61
2021/12/12 07:47:52;;;;;;;13.07;11.63;;;;;;;6.10;100.00;102134.78;5266982;28;20103;-63
2021/12/12 07:50:26;;;;;;;11.82;10.75;;;;;;;6.14;100.00;102134.41;5249176;28;20373;-62
2021/12/12 07:52:57;;;;;;;13.52;11.75;;;;;;;6.06;100.00;102125.47;5248976;28;20078;-63
2021/12/12 07:55:27;;;;;;;12.38;11.27;;;;;;;6.16;100.00;102133.19;5248660;28;20036;-63
2021/12/12 07:57:58;;;;;;;14.05;12.50;;;;;;;5.99;100.00;102111.22;5248650;28;20054;-63
2021/12/12 08:00:30;;;;;;;13.60;12.50;;;;;;;6.24;100.00;102148.31;5232467;28;20111;-63
2021/12/12 08:03:03;;;;;;;13.88;12.35;;;;;;;6.23;100.00;102143.97;5248532;28;20028;-63
2021/12/12 08:05:35;;;;;;;24.48;16.10;;;;;;;6.27;100.00;102153.28;5248585;28;20115;-63
2021/12/12 08:08:09;;;;;;;12.95;11.60;;;;;;;6.29;100.00;102153.91;5248933;28;20384;-63
2021/12/12 08:10:44;;;;;;;13.05;11.93;;;;;;;6.30;100.00;102159.09;5248832;28;20040;-63
2021/12/12 08:13:15;;;;;;;14.07;12.95;;;;;;;6.32;100.00;102161.56;5248585;28;20024;-63
2021/12/12 08:15:46;;;;;;;12.82;11.93;;;;;;;6.32;100.00;102158.91;5248816;28;20169;-63
2021/12/12 08:18:18;;;;;;;15.75;12.80;;;;;;;6.33;100.00;102164.06;5248932;28;20489;-63
2021/12/12 08:20:51;;;;;;;13.35;11.93;;;;;;;6.33;100.00;102163.22;5266999;28;20407;-63
2021/12/12 08:23:24;;;;;;;14.95;13.68;;;;;;;6.31;100.00;102158.06;5248869;28;20028;-63
2021/12/12 08:25:55;;;;;;;14.25;13.05;;;;;;;6.41;100.00;102165.75;5248530;28;20061;-63
2021/12/12 08:28:25;;;;;;;14.65;13.20;;;;;;;6.36;100.00;102160.97;5248462;28;20020;-61
2021/12/12 08:30:57;;;;;;;15.43;14.30;;;;;;;6.44;100.00;102173.41;5248511;28;20547;-63
2021/12/12 08:33:28;;;;;;;14.27;12.95;;;;;;;6.34;100.00;102159.53;5248386;28;20413;-63
2021/12/12 08:35:59;;;;;;;16.35;13.23;;;;;;;6.49;100.00;102178.19;5248543;28;20024;-62
2021/12/12 08:38:30;;;;;;;15.98;14.40;;;;;;;6.49;100.00;102168.28;5248758;28;20032;-62
2021/12/12 08:41:04;;;;;;;13.65;12.60;;;;;;;6.51;100.00;102176.13;5249045;28;20027;-62
2021/12/12 08:43:37;;;;;;;16.25;14.30;;;;;;;6.47;100.00;102178.38;5249466;28;20038;-62
2021/12/12 08:46:12;;;;;;;17.83;15.60;;;;;;;6.54;100.00;102187.31;5250677;28;20032;-63
2021/12/12 08:48:48;;;;;;;16.17;14.48;;;;;;;6.52;100.00;102186.69;5272288;28;20533;-63
2021/12/12 08:51:29;;;;;;;16.00;14.27;;;;;;;6.58;100.00;102193.13;5253878;28;20077;-61
2021/12/12 08:54:12;;;;;;;17.58;14.82;;;;;;;6.59;100.00;102198.28;5253270;28;20027;-62
2021/12/12 08:56:48;;;;;;;17.13;13.32;;;;;;;6.62;100.00;102197.06;5253928;28;20036;-61
2021/12/12 08:59:23;;;;;;;13.68;12.43;;;;;;;6.62;100.00;102203.25;5253333;28;20020;-63
2021/12/12 09:01:58;;;;;;;15.75;14.38;;;;;;;6.62;100.00;102197.91;5253286;28;20032;-62
2021/12/12 09:04:48;;;;;;;17.23;13.55;;;;;;;6.60;100.00;102210.69;5253263;28;20044;-60
2021/12/12 09:07:27;;;;;;;;;;;;;;;6.64;100.00;102206.56;5254239;28;20292;-61
2021/12/12 09:10:07;;;;;;;15.27;13.88;;;;;;;6.52;100.00;102186.69;5253186;28;20007;-62
2021/12/12 09:12:45;;;;;;;15.10;13.93;;;;;;;6.65;100.00;102210.91;5252741;28;20023;-62
2021/12/12 09:15:24;;;;;;;15.18;13.63;;;;;;;6.66;100.00;102209.03;5252590;28;20395;-62
2021/12/12 09:18:02;;;;;;;13.43;11.80;;;;;;;6.66;100.00;102214.41;5270787;28;20121;-62
2021/12/12 09:21:05;;;;;;;16.52;14.95;;;;;;;6.72;100.00;102214.47;5252787;28;20445;-62
2021/12/12 09:23:50;;;;;;;16.65;15.35;;;;;;;6.78;100.00;102213.66;5248150;28;20062;-62
2021/12/12 09:26:24;;;;;;;17.38;15.65;;;;;;;6.84;100.00;102220.13;5252291;28;20052;-60
2021/12/12 09:29:10;;;;;;;18.25;15.52;;;;;;;6.89;100.00;102216.84;5251680;28;20016;-60
2021/12/12 09:31:50;;;;;;;24.58;16.15;;;;;;;5.88;100.00;102050.03;5252386;28;20031;-62
2021/12/12 09:34:38;;;;;;;16.88;14.73;;;;;;;6.94;100.00;102217.03;5251927;28;20092;-63
2021/12/12 09:37:35;;;;;;;16.10;14.70;;;;;;;6.99;100.00;102226.19;5252346;28;20385;-63
2021/12/12 09:40:16;;;;;;;19.83;16.20;;;;;;;7.03;100.00;102221.25;5245719;28;20071;-63
2021/12/12 09:43:24;;;;;;;19.80;15.48;;;;;;;7.09;100.00;102223.13;5252375;28;20111;-63
2021/12/12 09:46:18;;;;;;;20.23;15.20;;;;;;;7.14;100.00;102220.69;5251922;28;20020;-63
2021/12/12 09:52:45;;;;;;;17.52;15.90;;;;;;;7.21;100.00;102234.97;5270280;28;20058;-60
2021/12/12 09:55:26;;;;;;;15.85;14.48;;;;;;;7.23;100.00;102230.22;5269548;28;20515;-61
2021/12/12 09:58:20;;;;;;;15.43;14.20;;;;;;;7.27;100.00;102228.78;5267858;28;20027;-64
2021/12/12 10:01:19;;;;;;;15.60;14.13;;;;;;;7.31;100.00;102231.91;5268436;28;20028;-62
2021/12/12 10:04:18;;;;;;;19.85;17.60;;;;;;;7.36;100.00;102232.97;5268610;28;20027;-63
2021/12/12 10:07:33;;;;;;;16.02;14.80;;;;;;;7.37;100.00;102229.25;5251133;28;20028;-63
2021/12/12 10:10:11;;;;;;;18.20;16.40;;;;;;;7.43;100.00;102236.50;5251904;28;20522;-62
2021/12/12 10:12:54;;;;;;;17.23;15.57;;;;;;;7.43;100.00;102233.81;5251202;28;20024;-63
2021/12/12 10:15:27;;;;;;;13.88;12.63;;;;;;;7.43;100.00;102233.81;5250406;28;20286;-63
2021/12/12 10:18:00;;;;;;;15.23;13.88;;;;;;;7.35;100.00;102225.09;5251426;28;20024;-62
2021/12/12 10:21:05;;;;;;;17.50;15.77;;;;;;;7.39;100.00;102232.56;5251494;28;20024;-62
2021/12/12 10:23:55;;;;;;;15.35;13.73;;;;;;;7.39;100.00;102227.19;5251035;28;20101;-61
2021/12/12 10:26:31;;;;;;;;;;;;;;;7.40;100.00;102236.91;5251526;28;20036;-62
2021/12/12 10:29:26;;;;;;;14.68;13.38;;;;;;;7.39;100.00;102232.56;5250996;28;20368;-62
2021/12/12 10:32:12;;;;;;;16.65;15.32;;;;;;;7.41;100.00;102230.50;5251061;28;20192;-63
2021/12/12 10:34:47;;;;;;;20.73;15.15;;;;;;;7.16;100.00;102186.38;5251119;28;20031;-61
2021/12/12 10:37:28;;;;;;;16.60;15.20;;;;;;;7.51;100.00;102226.63;5251045;28;20035;-63
2021/12/12 10:40:14;;;;;;;18.08;15.77;;;;;;;7.56;100.00;102234.88;5250971;28;20039;-61
2021/12/12 10:42:50;;;;;;;18.85;14.98;;;;;;;7.57;100.00;102239.22;5251126;28;20106;-62
2021/12/12 10:45:49;;;;;;;18.17;14.45;;;;;;;7.60;100.00;102239.66;5269339;28;20395;-62
2021/12/12 10:48:27;;;;;;;15.88;14.52;;;;;;;7.48;100.00;102219.78;5250607;28;20114;-62
2021/12/12 10:51:06;;;;;;;15.00;13.60;;;;;;;7.66;100.00;102240.69;5250986;28;20063;-63
2021/12/12 10:53:48;;;;;;;17.00;15.48;;;;;;;7.68;100.00;102236.78;5250958;28;20055;-63
2021/12/12 10:56:50;;;;;;;12.23;11.23;;;;;;;7.69;100.00;102240.31;5268576;28;20028;-62
2021/12/12 10:59:54;;;;;;;18.90;16.65;;;;;;;7.70;100.00;102233.88;5250407;28;20089;-63
2021/12/12 11:05:18;;;;;;;15.90;14.48;;;;;;;7.77;100.00;102245.50;5264431;28;20431;-62
2021/12/12 11:07:54;;;;;;;15.48;14.10;;;;;;;7.80;100.00;102245.06;5249865;28;20056;-62
2021/12/12 11:10:29;;;;;;;15.57;14.27;;;;;;;7.84;100.00;102245.50;5249047;28;20479;-60
2021/12/12 11:13:05;;;;;;;15.70;14.20;;;;;;;7.86;100.00;102235.34;5249396;28;20475;-61
2021/12/12 11:16:05;;;;;;;13.85;12.57;;;;;;;7.84;100.00;102235.56;5249534;28;20251;-62
2021/12/12 11:18:55;;;;;;;16.27;14.63;;;;;;;7.89;100.00;102238.47;5242711;28;20093;-60
2021/12/12 11:21:42;;;;;;;16.40;14.95;;;;;;;7.92;100.00;102238.06;5249835;28;20031;-61
2021/12/12 11:24:22;;;;;;;14.32;13.10;;;;;;;7.93;100.00;102228.13;5249426;28;20028;-66
2021/12/12 11:26:56;;;;;;;;;;;;;;;7.97;100.00;102240.97;5249825;28;20031;-62
2021/12/12 11:29:36;;;;;;;15.25;13.77;;;;;;;7.94;100.00;102236.00;5249216;28;20405;-62
2021/12/12 11:32:12;;;;;;;15.90;14.30;;;;;;;7.90;100.00;102229.38;5247886;28;20027;-61
2021/12/12 11:34:49;;;;;;;14.05;12.20;;;;;;;7.97;100.00;102240.97;5247755;28;20020;-62
2021/12/12 11:37:32;;;;;;;16.20;14.70;;;;;;;7.94;100.00;102230.63;5248668;28;20235;-62
2021/12/12 11:40:13;;;;;;;15.98;13.93;;;;;;;7.96;100.00;102242.00;5249529;28;20034;-60
2021/12/12 11:42:51;;;;;;;15.45;13.63;;;;;;;7.94;100.00;102244.06;5249366;28;20024;-62
2021/12/12 11:45:39;;;;;;;15.55;14.35;;;;;;;7.95;100.00;102239.53;5249209;28;20024;-61
2021/12/12 11:48:38;;;;;;;15.70;14.02;;;;;;;8.01;100.00;102244.09;5249473;28;20479;-63
2021/12/12 11:51:17;;;;;;;14.75;13.52;;;;;;;8.00;100.00;102240.56;5249179;28;20116;-63
2021/12/12 11:54:32;;;;;;;16.27;14.57;;;;;;;8.00;100.00;102234.34;5249153;28;20176;-61
2021/12/12 11:57:34;;;;;;;14.30;13.00;;;;;;;7.98;100.00;102236.41;5240116;28;20075;-63
2021/12/12 12:00:16;;;;;;;16.02;14.38;;;;;;;8.00;100.00;102242.44;5242848;28;20466;-62
2021/12/12 12:03:08;;;;;;;15.88;13.02;;;;;;;8.01;100.00;102242.22;5248915;28;20111;-62
2021/12/12 12:06:01;;;;;;;18.90;15.15;;;;;;;8.01;100.00;102253.00;5249061;28;20479;-62
2021/12/12 12:08:58;;;;;;;16.30;15.02;;;;;;;8.01;100.00;102253.00;5249216;28;20020;-65
2021/12/12 12:12:04;;;;;;;17.13;15.50;;;;;;;8.04;100.00;102257.13;5249184;28;20043;-62
2021/12/12 12:14:57;;;;;;;17.98;16.08;;;;;;;8.00;100.00;102258.56;5248498;28;20035;-61
2021/12/12 12:17:54;;;;;;;18.15;16.65;;;;;;;8.07;100.00;102259.41;5256368;28;20160;-62
2021/12/12 12:20:42;;;;;;;17.33;15.73;;;;;;;8.15;100.00;102253.81;5250333;28;20028;-62
2021/12/12 12:23:20;;;;;;;16.88;15.68;;;;;;;8.21;100.00;102252.16;5252966;28;20511;-63